Time;durP1;ratioP1;P1;durP2;ratioP2;P2;SDS_P1;SDS_P2;PMS_P1;PMS_P2;Temp;Humidity;BMP_temperature;BMP_pressure;BME280_temperature;BME280_humidity;BME280_pressure;Samples;Min_cycle;Max_cycle;Signal;HPM_P1;HPM_P2
2022/12/16 01:55:07;;;;;;;85.28;42.40;;;;;;;-1.13;100.00;99825.96;1789604;79;22829;-77
2022/12/16 01:57:37;;;;;;;70.95;39.92;;;;;;;-1.07;100.00;99831.38;1731710;82;21042;-77
2022/12/16 02:00:09;;;;;;;65.05;35.60;;;;;;;-0.88;100.00;99845.05;1746871;82;21080;-77
2022/12/16 02:02:35;;;;;;;58.40;35.58;;;;;;;-0.70;100.00;99845.38;1685329;82;21039;-77
2022/12/16 02:05:20;;;;;;;49.00;28.55;;;;;;;-0.52;100.00;99842.51;1728282;82;21137;-77
2022/12/16 02:08:13;;;;;;;39.33;24.98;;;;;;;-0.35;100.00;99832.80;1717663;82;20952;-75
2022/12/16 02:11:21;;;;;;;24.85;17.85;;;;;;;-0.19;100.00;99837.31;1738912;82;21570;-75
2022/12/16 02:13:57;;;;;;;27.48;17.85;;;;;;;-0.01;100.00;99832.75;1724234;82;21651;-75
2022/12/16 02:16:38;;;;;;;23.02;15.90;;;;;;;0.06;100.00;99846.98;1718863;82;21070;-75
2022/12/16 02:19:30;;;;;;;24.82;16.85;;;;;;;0.13;100.00;99855.85;1728147;82;21042;-75
2022/12/16 02:22:18;;;;;;;20.37;14.78;;;;;;;0.20;100.00;99850.00;1723981;82;21007;-76
2022/12/16 02:25:22;;;;;;;23.73;16.35;;;;;;;0.24;100.00;99841.05;1723405;82;21720;-75
2022/12/16 02:28:08;;;;;;;23.92;17.02;;;;;;;0.21;100.00;99842.29;1737721;82;21635;-75
2022/12/16 02:31:15;;;;;;;26.62;19.20;;;;;;;0.28;100.00;99825.73;1730964;82;21622;-76
2022/12/16 02:34:00;;;;;;;30.68;18.37;;;;;;;0.32;100.00;99830.96;1728706;82;22127;-76
2022/12/16 02:37:09;;;;;;;24.80;18.05;;;;;;;0.38;100.00;99830.16;1655907;83;21599;-76
2022/12/16 02:39:37;;;;;;;;;;;;;;;0.47;100.00;99836.97;1739043;82;21063;-74
2022/12/16 02:42:24;;;;;;;25.92;18.15;;;;;;;0.55;100.00;99838.63;1720126;82;20915;-76
2022/12/16 02:44:56;;;;;;;24.45;17.37;;;;;;;0.57;100.00;99843.80;1732575;82;21027;-76
2022/12/16 02:47:23;;;;;;;103.67;56.60;;;;;;;0.58;100.00;99840.89;1726325;82;21002;-76
2022/12/16 02:49:51;;;;;;;93.90;53.63;;;;;;;0.56;100.00;99840.28;1729802;82;21564;-76
2022/12/16 02:52:22;;;;;;;93.70;54.58;;;;;;;0.59;100.00;99833.69;1723954;82;20975;-76
2022/12/16 02:54:57;;;;;;;80.50;51.37;;;;;;;0.69;100.00;99832.25;1722533;82;21731;-76
2022/12/16 02:57:41;;;;;;;81.67;55.55;;;;;;;0.74;100.00;99832.47;1723381;82;21039;-75
2022/12/16 03:00:11;;;;;;;57.40;40.52;;;;;;;0.74;100.00;99837.83;1729825;82;21117;-76
2022/12/16 03:03:08;;;;;;;52.73;36.77;;;;;;;0.77;100.00;99824.52;1721754;82;21003;-76
2022/12/16 03:05:39;;;;;;;37.20;27.58;;;;;;;0.81;100.00;99838.66;1739732;82;21790;-76
2022/12/16 03:08:11;;;;;;;38.83;28.12;;;;;;;0.86;100.00;99843.38;1743003;82;21482;-76
2022/12/16 03:10:44;;;;;;;43.35;31.45;;;;;;;0.84;100.00;99846.28;1730693;82;21452;-76
2022/12/16 03:13:11;;;;;;;39.70;30.12;;;;;;;0.81;100.00;99838.66;1725492;82;20999;-76
2022/12/16 03:15:37;;;;;;;;;;;;;;;0.80;100.00;99832.98;1740649;82;21011;-76
2022/12/16 03:18:05;;;;;;;35.35;25.30;;;;;;;0.83;100.00;99837.92;1730423;82;20117;-76
2022/12/16 03:20:51;;;;;;;36.33;27.15;;;;;;;0.84;100.00;99844.11;1738418;82;21004;-76
2022/12/16 03:23:39;;;;;;;34.00;25.53;;;;;;;0.83;100.00;99847.81;1731485;82;21108;-76
2022/12/16 03:26:09;;;;;;;32.93;25.60;;;;;;;0.77;100.00;99842.77;1726816;82;21015;-76
2022/12/16 03:28:53;;;;;;;35.13;24.65;;;;;;;0.73;100.00;99825.96;1725483;82;20967;-76
2022/12/16 03:31:56;;;;;;;36.88;24.77;;;;;;;0.68;100.00;99814.52;1714348;82;21109;-76
2022/12/16 03:34:40;;;;;;;31.57;23.77;;;;;;;0.69;100.00;99815.34;1724600;82;21941;-76
2022/12/16 03:37:10;;;;;;;30.12;22.58;;;;;;;0.74;100.00;99824.94;1736216;82;21467;-75
2022/12/16 03:39:45;;;;;;;31.10;23.25;;;;;;;0.78;100.00;99813.58;1708886;84;21098;-76
2022/12/16 03:42:11;;;;;;;32.48;23.57;;;;;;;0.80;100.00;99818.75;1746446;81;20967;-76
2022/12/16 03:44:39;;;;;;;29.02;20.27;;;;;;;0.81;100.00;99817.72;1735336;82;21051;-76
2022/12/16 03:47:05;;;;;;;25.70;18.27;;;;;;;0.81;100.00;99820.41;1742489;82;20970;-75
2022/12/16 03:49:31;;;;;;;26.95;19.30;;;;;;;0.79;100.00;99825.13;1724921;82;21050;-76
2022/12/16 03:51:58;;;;;;;24.85;18.50;;;;;;;0.77;100.00;99824.02;1726206;82;20983;-76
2022/12/16 03:54:24;;;;;;;27.90;19.70;;;;;;;0.73;100.00;99830.81;1728536;82;21079;-76
2022/12/16 03:56:51;;;;;;;32.30;22.10;;;;;;;0.69;100.00;99838.12;1715452;82;20999;-75
2022/12/16 03:59:17;;;;;;;39.03;25.50;;;;;;;0.66;100.00;99839.36;1720295;82;21015;-76
2022/12/16 04:01:44;;;;;;;36.88;26.15;;;;;;;0.70;100.00;99842.45;1719200;82;21003;-76
2022/12/16 04:04:10;;;;;;;42.23;28.75;;;;;;;0.73;100.00;99836.17;1735444;81;20999;-76
2022/12/16 04:06:36;;;;;;;;;;;;;;;0.73;100.00;99833.48;1719474;82;20960;-76
2022/12/16 04:09:03;;;;;;;51.13;32.60;;;;;;;0.70;100.00;99836.59;1719024;81;20106;-76
2022/12/16 04:25:25;;;;;;;50.38;32.58;;;;;;;0.62;100.00;99858.72;1717232;82;21110;-78
2022/12/16 04:27:52;;;;;;;46.28;31.05;;;;;;;0.57;100.00;99853.97;1715411;82;20945;-77
2022/12/16 04:30:19;;;;;;;47.05;29.80;;;;;;;0.57;100.00;99855.30;1722416;82;21095;-77
